createdAt,value
2022-11-01T00:00:11.499Z,72.95
2022-11-01T00:01:17.879Z,83.35
2022-11-01T00:02:21.817Z,75.38
2022-11-01T00:03:26.073Z,82.75
2022-11-01T00:04:29.922Z,67.40
2022-11-01T00:05:32.789Z,68.65
2022-11-01T00:06:36.741Z,68.10
2022-11-01T00:07:39.729Z,82.55
2022-11-01T00:08:44.016Z,92.97
2022-11-01T00:09:47.877Z,74.68
2022-11-01T00:10:50.723Z,87.45
2022-11-01T00:11:54.732Z,71.47
2022-11-01T00:12:57.518Z,70.22
2022-11-01T00:14:01.713Z,65.68
2022-11-01T00:15:05.098Z,80.50
2022-11-01T00:16:09.308Z,72.13
2022-11-01T00:17:13.783Z,83.15
2022-11-01T00:18:16.791Z,76.65
2022-11-01T00:19:24.731Z,71.43
2022-11-01T00:20:27.668Z,65.60
2022-11-01T00:21:34.519Z,75.00
2022-11-01T00:22:38.187Z,89.75
2022-11-01T00:23:42.338Z,89.60
2022-11-01T00:24:45.270Z,79.35
2022-11-01T00:25:49.397Z,94.32
2022-11-01T00:26:53.780Z,68.55
2022-11-01T00:27:56.561Z,88.25
2022-11-01T00:29:00.700Z,78.95
2022-11-01T00:30:04.390Z,89.60
2022-11-01T00:31:11.797Z,73.03
2022-11-01T00:32:15.920Z,89.22
2022-11-01T00:33:19.967Z,65.63
2022-11-01T00:34:24.399Z,78.38
2022-11-01T00:35:28.299Z,70.03
2022-11-01T00:36:31.177Z,82.03
2022-11-01T00:37:35.007Z,74.20
2022-11-01T00:38:37.848Z,73.65
2022-11-01T00:39:42.130Z,66.80
2022-11-01T00:40:45.341Z,120.25
2022-11-01T00:41:49.101Z,132.63
2022-11-01T00:42:52.151Z,167.73
2022-11-01T00:43:56.379Z,154.93
2022-11-01T00:45:00.093Z,154.30
2022-11-01T00:46:04.438Z,104.28
2022-11-01T00:47:07.199Z,86.30
2022-11-01T00:48:11.009Z,84.78
2022-11-01T00:49:14.748Z,86.65
2022-11-01T00:50:18.909Z,101.20
2022-11-01T00:51:23.103Z,115.45
2022-11-01T00:52:26.647Z,200.40
2022-11-01T00:53:30.576Z,107.90
2022-11-01T00:54:33.421Z,154.15
2022-11-01T00:55:37.339Z,147.82
2022-11-01T00:56:41.200Z,85.57
2022-11-01T00:57:44.896Z,90.32
2022-11-01T00:58:48.828Z,94.15
2022-11-01T01:01:00.891Z,106.05
2022-11-01T01:02:04.098Z,78.95
2022-11-01T01:03:08.401Z,91.13
2022-11-01T01:04:11.941Z,105.95
2022-11-01T01:05:16.411Z,83.13
2022-11-01T01:06:21.098Z,83.05
2022-11-01T01:07:25.160Z,69.32
2022-11-01T01:08:28.813Z,91.95
2022-11-01T01:09:33.029Z,68.28
2022-11-01T01:10:36.599Z,74.13
2022-11-01T01:11:40.759Z,79.18
2022-11-01T01:12:43.583Z,71.72
2022-11-01T01:13:47.696Z,74.57
2022-11-01T01:14:51.083Z,66.00
2022-11-01T01:16:15.168Z,79.88
2022-11-01T01:17:39.510Z,87.53
2022-11-01T01:19:02.728Z,71.72
2022-11-01T01:20:26.918Z,79.40
2022-11-01T01:21:51.047Z,79.50
2022-11-01T01:23:15.710Z,69.53
2022-11-01T01:24:39.169Z,70.03
2022-11-01T01:26:07.693Z,71.13
2022-11-01T01:27:30.338Z,56.55
2022-11-01T01:28:55.576Z,97.70
2022-11-01T01:30:18.368Z,129.80
2022-11-01T01:31:42.079Z,122.97
2022-11-01T01:33:05.408Z,172.73
2022-11-01T01:34:28.278Z,94.68
2022-11-01T01:35:45.309Z,69.15
2022-11-01T01:37:10.250Z,69.40
2022-11-01T01:38:34.520Z,76.40
2022-11-01T01:39:58.277Z,72.55
2022-11-01T01:41:39.918Z,82.65
2022-11-01T01:43:03.809Z,81.57
2022-11-01T01:45:08.101Z,103.47
2022-11-01T01:46:31.960Z,96.65
2022-11-01T01:47:49.231Z,94.00
2022-11-01T01:49:13.059Z,102.97
2022-11-01T01:50:38.822Z,100.53
2022-11-01T01:52:02.753Z,96.57
2022-11-01T01:53:30.161Z,109.75
2022-11-01T01:54:53.078Z,102.05
2022-11-01T01:56:18.463Z,102.28
2022-11-01T01:57:41.802Z,98.68
2022-11-01T01:59:08.561Z,87.60
2022-11-01T02:00:32.460Z,75.50
2022-11-01T02:01:55.408Z,75.40
2022-11-01T02:03:19.481Z,87.13
2022-11-01T02:04:45.080Z,82.72
2022-11-01T02:06:11.955Z,74.80
2022-11-01T02:07:34.730Z,94.90
2022-11-01T02:09:02.160Z,89.82
2022-11-01T02:10:25.082Z,76.95
2022-11-01T02:11:49.231Z,72.78
2022-11-01T02:13:13.692Z,74.40
2022-11-01T02:14:37.473Z,82.28
2022-11-01T02:16:13.562Z,76.38
2022-11-01T02:17:41.339Z,90.13
2022-11-01T02:19:47.482Z,82.30
2022-11-01T02:21:39.833Z,81.43
2022-11-01T02:23:19.754Z,100.18
2022-11-01T02:24:55.840Z,133.50
2022-11-01T02:26:56.718Z,154.45
2022-11-01T02:28:40.312Z,189.05
2022-11-01T02:30:19.149Z,209.15
2022-11-01T02:31:38.594Z,231.50
2022-11-01T02:33:03.741Z,212.63
2022-11-01T02:34:11.169Z,197.32
2022-11-01T02:35:21.007Z,164.38
2022-11-01T02:36:27.465Z,170.02
2022-11-01T02:37:35.834Z,160.38
2022-11-01T02:38:40.762Z,180.82
2022-11-01T02:39:49.873Z,183.45
2022-11-01T02:40:59.341Z,148.18
2022-11-01T02:42:06.467Z,148.07
2022-11-01T02:43:12.491Z,251.32
2022-11-01T02:44:18.481Z,283.92
2022-11-01T02:45:29.260Z,308.70
2022-11-01T02:46:53.163Z,256.83
2022-11-01T02:47:58.184Z,256.58
2022-11-01T02:49:03.623Z,261.80
2022-11-01T02:50:09.851Z,341.50
2022-11-01T02:51:13.649Z,220.50
2022-11-01T02:52:21.198Z,177.20
2022-11-01T02:53:24.201Z,247.13
2022-11-01T02:54:32.415Z,282.55
2022-11-01T02:55:36.451Z,273.30
2022-11-01T02:56:41.268Z,251.82
2022-11-01T02:57:44.243Z,195.48
2022-11-01T02:58:49.736Z,210.68
2022-11-01T02:59:52.529Z,277.13
2022-11-01T03:00:57.332Z,211.30
2022-11-01T03:02:08.550Z,195.52
2022-11-01T03:03:15.544Z,192.77
2022-11-01T03:04:19.982Z,200.70
2022-11-01T03:05:29.087Z,224.10
2022-11-01T03:06:35.110Z,373.70
2022-11-01T03:07:39.981Z,420.38
2022-11-01T03:08:45.740Z,434.58
2022-11-01T03:09:49.601Z,282.33
2022-11-01T03:10:55.390Z,420.40
2022-11-01T03:12:02.434Z,467.58
2022-11-01T03:13:11.812Z,432.85
2022-11-01T03:14:22.512Z,519.88
2022-11-01T03:15:28.161Z,422.95
2022-11-01T03:16:34.738Z,466.55
2022-11-01T03:17:44.262Z,360.83
2022-11-01T03:18:57.341Z,304.90
2022-11-01T03:20:06.809Z,296.95
2022-11-01T03:21:17.064Z,331.50
2022-11-01T03:22:24.271Z,365.13
2022-11-01T03:23:34.201Z,167.88
2022-11-01T03:24:40.877Z,240.77
2022-11-01T03:25:48.167Z,218.90
2022-11-01T03:26:56.230Z,357.42
2022-11-01T03:28:01.779Z,371.48
2022-11-01T03:29:07.851Z,331.05
2022-11-01T03:30:14.363Z,354.48
2022-11-01T03:31:20.421Z,181.30
2022-11-01T03:32:25.981Z,303.23
2022-11-01T03:33:30.252Z,289.05
2022-11-01T03:34:36.914Z,389.77
2022-11-01T03:35:43.862Z,403.35
2022-11-01T03:36:51.298Z,349.17
2022-11-01T03:38:00.000Z,288.15
2022-11-01T03:39:06.888Z,289.02
2022-11-01T03:40:11.651Z,353.08
2022-11-01T03:41:18.030Z,345.95
2022-11-01T03:42:22.052Z,330.75
2022-11-01T03:43:27.042Z,399.10
2022-11-01T03:44:33.524Z,323.83
2022-11-01T03:45:39.870Z,316.92
2022-11-01T03:46:42.904Z,274.00
2022-11-01T03:47:46.780Z,225.27
2022-11-01T03:48:49.643Z,214.50
2022-11-01T03:50:15.181Z,207.98
2022-11-01T03:51:20.567Z,233.20
2022-11-01T03:52:23.483Z,247.77
2022-11-01T03:53:27.573Z,192.25
2022-11-01T03:54:30.393Z,266.63
2022-11-01T03:55:34.242Z,300.40
2022-11-01T03:56:37.271Z,237.57
2022-11-01T03:57:43.049Z,288.67
2022-11-01T03:58:46.509Z,257.27
2022-11-01T03:59:50.383Z,175.55
2022-11-01T04:00:54.684Z,227.70
2022-11-01T04:01:58.873Z,226.20
2022-11-01T04:03:02.279Z,208.00
2022-11-01T04:04:06.573Z,220.38
2022-11-01T04:05:09.726Z,147.32
2022-11-01T04:06:13.704Z,149.60
2022-11-01T04:07:18.023Z,228.40
2022-11-01T04:08:21.856Z,219.13
2022-11-01T04:09:24.731Z,200.65
2022-11-01T04:10:29.412Z,251.15
2022-11-01T04:11:32.363Z,212.88
2022-11-01T04:12:36.530Z,251.43
2022-11-01T04:13:39.498Z,236.63
2022-11-01T04:15:00.406Z,277.15
2022-11-01T04:16:26.943Z,215.52
2022-11-01T04:17:53.389Z,305.05
2022-11-01T04:19:14.706Z,283.48
2022-11-01T04:20:37.151Z,351.83
2022-11-01T04:21:40.698Z,301.15
2022-11-01T04:22:46.022Z,290.95
2022-11-01T04:23:48.959Z,311.13
2022-11-01T04:24:53.141Z,244.50
2022-11-01T04:25:55.861Z,269.77
2022-11-01T04:26:59.662Z,303.73
2022-11-01T04:28:05.114Z,286.77
2022-11-01T04:29:09.122Z,319.50
2022-11-01T04:30:12.728Z,291.52
2022-11-01T04:31:16.535Z,200.05
2022-11-01T04:32:19.718Z,280.73
2022-11-01T04:33:23.825Z,302.33
2022-11-01T04:34:41.520Z,304.10
2022-11-01T04:35:46.050Z,248.50
2022-11-01T04:36:48.802Z,257.00
2022-11-01T04:37:59.336Z,325.83
2022-11-01T04:39:05.333Z,204.35
2022-11-01T04:40:09.581Z,237.63
2022-11-01T04:41:13.522Z,329.85
2022-11-01T04:42:16.313Z,295.42
2022-11-01T04:43:23.052Z,123.75
2022-11-01T04:44:25.919Z,260.50
2022-11-01T04:45:30.204Z,285.95
2022-11-01T04:46:32.949Z,307.60
2022-11-01T04:47:36.911Z,282.13
2022-11-01T04:48:39.772Z,338.67
2022-11-01T04:49:43.611Z,156.77
2022-11-01T04:50:47.552Z,312.20
2022-11-01T04:51:50.363Z,215.30
2022-11-01T04:52:54.172Z,345.90
2022-11-01T04:53:59.438Z,260.73
2022-11-01T04:55:02.264Z,325.30
2022-11-01T04:56:09.171Z,251.55
2022-11-01T04:57:23.102Z,213.73
2022-11-01T04:58:27.668Z,212.80
2022-11-01T04:59:30.510Z,212.07
2022-11-01T05:00:34.840Z,111.47
2022-11-01T05:01:41.006Z,259.67
2022-11-01T05:02:44.943Z,244.07
2022-11-01T05:03:50.108Z,265.70
2022-11-01T05:04:52.960Z,242.18
2022-11-01T05:05:57.149Z,222.75
2022-11-01T05:06:59.981Z,250.90
2022-11-01T05:08:04.363Z,153.23
2022-11-01T05:09:08.801Z,193.00
2022-11-01T05:10:13.171Z,250.25
2022-11-01T05:11:16.839Z,114.85
2022-11-01T05:12:22.513Z,146.95
2022-11-01T05:13:26.677Z,167.52
2022-11-01T05:14:29.436Z,141.02
2022-11-01T05:15:33.702Z,122.32
2022-11-01T05:16:38.063Z,123.88
2022-11-01T05:17:43.185Z,127.75
2022-11-01T05:18:49.015Z,235.23
2022-11-01T05:19:53.282Z,199.13
2022-11-01T05:20:56.939Z,165.43
2022-11-01T05:22:00.895Z,148.73
2022-11-01T05:23:05.820Z,127.05
2022-11-01T05:24:11.291Z,104.40
2022-11-01T05:25:14.093Z,115.20
2022-11-01T05:26:18.293Z,157.65
2022-11-01T05:27:21.099Z,86.75
2022-11-01T05:28:24.840Z,149.85
2022-11-01T05:29:33.011Z,156.77
2022-11-01T05:30:38.487Z,206.60
2022-11-01T05:31:41.270Z,222.55
2022-11-01T05:32:45.468Z,235.15
2022-11-01T05:33:48.262Z,177.13
2022-11-01T05:34:52.160Z,204.27
2022-11-01T05:35:54.955Z,91.03
2022-11-01T05:37:00.038Z,130.20
2022-11-01T05:38:05.360Z,201.43
2022-11-01T05:39:10.020Z,236.85
2022-11-01T05:40:14.526Z,247.60
2022-11-01T05:41:17.272Z,225.57
2022-11-01T05:42:21.139Z,219.32
2022-11-01T05:43:23.882Z,276.15
2022-11-01T05:44:28.501Z,251.18
2022-11-01T05:45:31.486Z,213.98
2022-11-01T05:46:35.399Z,270.40
2022-11-01T05:47:40.691Z,213.65
2022-11-01T05:48:45.073Z,216.18
2022-11-01T05:49:47.933Z,278.60
2022-11-01T05:50:51.734Z,304.85
2022-11-01T05:51:54.680Z,284.92
2022-11-01T05:53:06.615Z,278.13
2022-11-01T05:54:10.841Z,259.20
2022-11-01T05:55:14.666Z,269.38
2022-11-01T05:56:18.249Z,246.43
2022-11-01T05:57:21.990Z,270.42
2022-11-01T05:58:27.997Z,173.65
2022-11-01T05:59:34.623Z,136.75
2022-11-01T06:00:37.422Z,285.80
2022-11-01T06:01:41.509Z,266.10
2022-11-01T06:02:44.326Z,269.23
2022-11-01T06:03:51.471Z,276.65
2022-11-01T06:04:57.961Z,224.32
2022-11-01T06:06:03.261Z,246.02
2022-11-01T06:07:07.113Z,191.05
2022-11-01T06:08:09.971Z,191.73
2022-11-01T06:09:15.303Z,172.02
2022-11-01T06:10:18.135Z,186.50
2022-11-01T06:11:21.920Z,158.15
2022-11-01T06:12:25.536Z,214.90
2022-11-01T06:13:29.379Z,284.20
2022-11-01T06:14:32.250Z,195.00
2022-11-01T06:15:38.833Z,257.30
2022-11-01T06:16:44.275Z,187.82
2022-11-01T06:17:48.471Z,221.35
2022-11-01T06:18:51.321Z,253.38
2022-11-01T06:19:55.109Z,203.73
2022-11-01T06:20:58.521Z,235.55
2022-11-01T06:22:02.482Z,227.93
2022-11-01T06:23:09.313Z,236.63
2022-11-01T06:24:15.392Z,207.70
2022-11-01T06:25:18.330Z,168.30
2022-11-01T06:26:22.112Z,222.18
2022-11-01T06:27:24.863Z,223.80
2022-11-01T06:28:28.784Z,211.48
2022-11-01T06:29:31.620Z,191.65
2022-11-01T06:30:35.640Z,182.45
2022-11-01T06:31:38.505Z,182.10
2022-11-01T06:32:42.902Z,134.30
2022-11-01T06:33:45.664Z,167.73
2022-11-01T06:34:49.500Z,221.02
2022-11-01T06:35:52.309Z,228.85
2022-11-01T06:36:56.133Z,137.40
2022-11-01T06:38:02.737Z,99.07
2022-11-01T06:39:06.562Z,107.88
2022-11-01T06:40:13.398Z,97.20
2022-11-01T06:41:17.450Z,110.65
2022-11-01T06:42:20.395Z,115.90
2022-11-01T06:43:24.532Z,107.57
2022-11-01T06:44:27.271Z,97.65
2022-11-01T06:45:31.398Z,94.40
2022-11-01T06:46:34.495Z,77.10
2022-11-01T06:48:49.372Z,77.90
2022-11-01T06:49:52.328Z,75.97
2022-11-01T06:50:57.148Z,74.85
2022-11-01T06:52:00.001Z,81.90
2022-11-01T06:53:04.394Z,77.32
2022-11-01T06:54:07.261Z,86.43
2022-11-01T06:55:12.642Z,56.47
2022-11-01T06:56:15.661Z,67.07
2022-11-01T06:57:19.471Z,57.40
2022-11-01T06:58:22.281Z,61.28
2022-11-01T06:59:26.042Z,67.60
2022-11-01T07:00:30.462Z,58.33
2022-11-01T07:01:34.495Z,51.80
2022-11-01T07:02:37.532Z,58.70
2022-11-01T07:03:41.481Z,51.78
2022-11-01T07:04:44.358Z,46.15
2022-11-01T07:05:49.719Z,52.03
2022-11-01T07:06:52.502Z,47.85
2022-11-01T07:07:56.631Z,41.92
2022-11-01T07:09:01.342Z,44.38
2022-11-01T07:10:04.571Z,36.30
2022-11-01T07:11:10.027Z,47.42
2022-11-01T07:12:12.875Z,42.65
2022-11-01T07:13:16.679Z,39.65
2022-11-01T07:14:19.453Z,46.58
2022-11-01T07:15:23.352Z,47.45
2022-11-01T07:16:26.341Z,36.53
2022-11-01T07:17:30.201Z,45.40
2022-11-01T07:18:33.368Z,40.53
2022-11-01T07:19:37.134Z,41.67
2022-11-01T07:20:43.332Z,45.97
2022-11-01T07:21:47.192Z,39.88
2022-11-01T07:22:58.576Z,41.80
2022-11-01T07:24:02.441Z,41.08
2022-11-01T07:25:06.211Z,42.35
2022-11-01T07:26:11.481Z,40.97
2022-11-01T07:27:19.445Z,38.28
2022-11-01T07:28:25.213Z,41.28
2022-11-01T07:29:27.950Z,35.83
2022-11-01T07:30:32.350Z,41.15
2022-11-01T07:31:35.492Z,37.13
2022-11-01T07:32:40.027Z,37.03
2022-11-01T07:33:43.950Z,35.65
2022-11-01T07:34:46.791Z,35.05
2022-11-01T07:35:50.690Z,43.58
2022-11-01T07:36:53.427Z,40.72
2022-11-01T07:37:59.523Z,35.83
2022-11-01T07:39:02.702Z,36.53
2022-11-01T07:40:07.373Z,35.45
2022-11-01T07:41:12.656Z,35.50
2022-11-01T07:42:15.341Z,34.78
2022-11-01T07:43:19.346Z,36.05
2022-11-01T07:44:22.128Z,36.80
2022-11-01T07:45:26.535Z,37.88
2022-11-01T07:46:30.829Z,35.92
2022-11-01T07:47:33.673Z,35.88
2022-11-01T07:48:37.471Z,37.60
2022-11-01T07:49:40.221Z,41.15
2022-11-01T07:50:44.978Z,37.53
2022-11-01T07:51:48.812Z,36.28
2022-11-01T07:53:00.616Z,36.28
2022-11-01T07:54:05.064Z,36.58
2022-11-01T07:55:09.288Z,39.75
2022-11-01T07:56:15.060Z,32.70
2022-11-01T07:57:19.056Z,32.45
2022-11-01T07:58:22.962Z,38.13
2022-11-01T07:59:26.749Z,34.92
2022-11-01T08:00:30.959Z,38.20
2022-11-01T08:01:34.231Z,34.90
2022-11-01T08:02:38.383Z,33.10
2022-11-01T08:03:41.292Z,34.85
2022-11-01T08:04:45.213Z,33.67
2022-11-01T08:05:49.111Z,33.80
2022-11-01T08:06:53.076Z,32.53
2022-11-01T08:07:56.092Z,32.58
2022-11-01T08:09:00.100Z,28.88
2022-11-01T08:10:03.092Z,28.05
2022-11-01T08:11:07.168Z,29.02
2022-11-01T08:12:11.432Z,28.73
2022-11-01T08:13:19.891Z,28.67
2022-11-01T08:14:22.683Z,27.60
2022-11-01T08:15:27.032Z,29.00
2022-11-01T08:16:31.126Z,28.92
2022-11-01T08:17:35.672Z,25.10
2022-11-01T08:18:38.389Z,26.52
2022-11-01T08:19:42.293Z,27.13
2022-11-01T08:20:46.373Z,24.13
2022-11-01T08:21:51.268Z,24.80
2022-11-01T08:22:55.448Z,25.58
2022-11-01T08:23:59.343Z,23.60
2022-11-01T08:25:02.191Z,23.52
2022-11-01T08:26:06.951Z,22.73
2022-11-01T08:27:11.192Z,26.70
2022-11-01T08:28:16.380Z,19.67
2022-11-01T08:29:20.469Z,20.20
2022-11-01T08:30:23.286Z,19.92
2022-11-01T08:31:27.155Z,18.23
2022-11-01T08:32:29.903Z,19.98
2022-11-01T08:33:33.733Z,16.92
2022-11-01T08:34:37.571Z,15.55
2022-11-01T08:35:41.847Z,17.85
2022-11-01T08:36:47.401Z,17.23
2022-11-01T08:37:51.881Z,13.02
2022-11-01T08:38:56.019Z,16.35
2022-11-01T08:40:00.638Z,15.90
2022-11-01T08:41:06.043Z,13.35
2022-11-01T08:42:10.625Z,12.90
2022-11-01T08:43:14.552Z,14.27
2022-11-01T08:44:19.598Z,14.55
2022-11-01T08:45:22.403Z,14.15
2022-11-01T08:46:26.469Z,11.60
2022-11-01T08:47:32.437Z,16.45
2022-11-01T08:48:36.968Z,14.00
2022-11-01T08:49:40.346Z,13.48
2022-11-01T08:50:44.399Z,13.43
2022-11-01T08:51:47.604Z,11.23
2022-11-01T08:52:52.178Z,12.45
2022-11-01T08:53:58.144Z,14.75
2022-11-01T08:55:01.894Z,15.77
2022-11-01T08:56:06.244Z,13.38
2022-11-01T08:57:10.419Z,11.25
2022-11-01T08:58:14.222Z,13.20
2022-11-01T08:59:17.002Z,13.63
2022-11-01T09:00:21.618Z,12.95
2022-11-01T09:01:27.333Z,13.10
2022-11-01T09:02:31.312Z,11.80
2022-11-01T09:03:34.102Z,11.30
2022-11-01T09:04:37.962Z,15.93
2022-11-01T09:05:40.890Z,11.73
2022-11-01T09:06:44.670Z,11.38
2022-11-01T09:07:47.566Z,13.43
2022-11-01T09:08:53.642Z,12.23
2022-11-01T09:09:57.440Z,12.15
2022-11-01T09:11:04.283Z,13.95
2022-11-01T09:12:13.753Z,13.65
2022-11-01T09:13:20.761Z,10.93
2022-11-01T09:14:25.162Z,11.38
2022-11-01T09:15:29.023Z,14.98
2022-11-01T09:16:33.161Z,14.10
2022-11-01T09:17:35.981Z,12.18
2022-11-01T09:18:48.603Z,12.20
2022-11-01T09:19:51.392Z,11.30
2022-11-01T09:20:56.202Z,10.02
2022-11-01T09:22:00.144Z,9.35
2022-11-01T09:23:04.378Z,10.20
2022-11-01T09:24:10.439Z,10.98
2022-11-01T09:25:13.362Z,9.70
2022-11-01T09:26:17.292Z,12.95
2022-11-01T09:27:20.279Z,9.40
2022-11-01T09:28:28.870Z,10.80
2022-11-01T09:30:49.809Z,9.82
2022-11-01T09:31:58.929Z,8.90
2022-11-01T09:33:05.806Z,6.78
2022-11-01T09:34:12.242Z,9.18
2022-11-01T09:35:17.819Z,10.57
2022-11-01T09:36:21.495Z,8.38
2022-11-01T09:37:25.412Z,7.72
2022-11-01T09:38:28.261Z,7.93
2022-11-01T09:39:32.363Z,8.48
2022-11-01T09:40:44.219Z,7.38
2022-11-01T09:41:51.120Z,6.07
2022-11-01T09:42:56.744Z,7.07
2022-11-01T09:44:07.789Z,7.80
2022-11-01T09:45:16.011Z,12.57
2022-11-01T09:47:31.909Z,7.72
2022-11-01T09:48:36.613Z,6.68
2022-11-01T09:49:40.511Z,6.65
2022-11-01T09:50:45.290Z,7.80
2022-11-01T09:51:49.542Z,7.53
2022-11-01T09:52:53.629Z,10.10
2022-11-01T09:53:59.488Z,7.90
2022-11-01T09:55:02.392Z,9.82
2022-11-01T09:56:10.539Z,7.70
2022-11-01T09:57:18.890Z,6.07
2022-11-01T09:58:30.604Z,8.45
2022-11-01T09:59:38.514Z,5.28
2022-11-01T10:00:48.063Z,7.25
2022-11-01T10:02:07.305Z,6.55
2022-11-01T10:03:35.812Z,7.53
2022-11-01T10:04:59.022Z,11.82
2022-11-01T10:06:05.860Z,10.02
2022-11-01T10:07:14.002Z,21.48
2022-11-01T10:08:25.309Z,18.95
2022-11-01T10:09:34.782Z,6.97
2022-11-01T10:10:41.391Z,8.25
2022-11-01T10:12:08.552Z,6.53
2022-11-01T10:13:27.803Z,9.75
2022-11-01T10:14:54.855Z,10.93
2022-11-01T10:16:04.349Z,11.15
2022-11-01T10:17:12.843Z,7.40
2022-11-01T10:18:27.521Z,8.98
2022-11-01T10:19:33.541Z,9.27
2022-11-01T10:20:39.550Z,9.95
2022-11-01T10:21:46.555Z,8.93
2022-11-01T10:22:50.242Z,11.32
2022-11-01T10:23:55.131Z,20.83
2022-11-01T10:24:59.444Z,10.70
2022-11-01T10:26:04.345Z,8.50
2022-11-01T10:27:14.701Z,11.98
2022-11-01T10:28:22.853Z,8.38
2022-11-01T10:29:32.091Z,8.57
2022-11-01T10:30:38.103Z,13.55
2022-11-01T10:31:46.991Z,8.68
2022-11-01T10:32:52.835Z,9.05
2022-11-01T10:34:01.520Z,7.53
2022-11-01T10:35:06.838Z,7.53
2022-11-01T10:36:15.219Z,7.57
2022-11-01T10:37:27.392Z,7.22
2022-11-01T10:40:09.118Z,8.68
2022-11-01T10:41:18.202Z,7.97
2022-11-01T10:42:21.913Z,6.50
2022-11-01T10:43:26.109Z,7.13
2022-11-01T10:44:32.391Z,8.40
2022-11-01T10:45:35.101Z,8.25
2022-11-01T10:46:41.251Z,7.70
2022-11-01T10:47:46.962Z,7.10
2022-11-01T10:48:51.409Z,7.88
2022-11-01T10:50:07.056Z,9.10
2022-11-01T10:51:12.560Z,7.90
2022-11-01T10:52:18.141Z,9.30
2022-11-01T10:53:22.748Z,12.52
2022-11-01T10:54:29.538Z,7.60
2022-11-01T10:55:38.328Z,7.00
2022-11-01T10:56:44.998Z,7.43
2022-11-01T10:57:50.719Z,7.25
2022-11-01T10:59:01.921Z,8.95
2022-11-01T11:00:07.773Z,7.55
2022-11-01T11:01:13.906Z,7.97
2022-11-01T11:02:22.939Z,7.13
2022-11-01T11:03:31.907Z,6.20
2022-11-01T11:04:35.152Z,8.00
2022-11-01T11:05:39.267Z,8.88
2022-11-01T11:06:42.831Z,7.13
2022-11-01T11:07:46.667Z,7.72
2022-11-01T11:08:52.808Z,7.72
2022-11-01T11:09:57.183Z,7.25
2022-11-01T11:11:06.079Z,6.38
2022-11-01T11:12:13.512Z,6.88
2022-11-01T11:13:19.571Z,7.82
2022-11-01T11:14:24.255Z,20.58
2022-11-01T11:15:39.982Z,21.50
2022-11-01T11:16:47.233Z,9.05
2022-11-01T11:17:53.900Z,9.20
2022-11-01T11:19:19.865Z,6.80
2022-11-01T11:20:27.002Z,9.50
2022-11-01T11:21:34.482Z,14.45
2022-11-01T11:22:40.080Z,32.20
2022-11-01T11:23:44.700Z,15.82
2022-11-01T11:24:49.471Z,20.95
2022-11-01T11:25:52.287Z,28.50
2022-11-01T11:26:56.970Z,16.33
2022-11-01T11:28:00.671Z,11.82
2022-11-01T11:29:04.916Z,7.20
2022-11-01T11:30:11.521Z,7.88
2022-11-01T11:31:15.873Z,12.02
2022-11-01T11:32:22.018Z,7.78
2022-11-01T11:33:24.929Z,8.75
2022-11-01T11:34:32.001Z,6.85
2022-11-01T11:35:37.952Z,10.82
2022-11-01T11:36:47.823Z,7.30
2022-11-01T11:37:53.799Z,6.18
2022-11-01T11:38:58.282Z,8.30
2022-11-01T11:40:19.905Z,7.60
2022-11-01T11:41:28.888Z,7.82
2022-11-01T11:42:35.503Z,9.90
2022-11-01T11:43:42.880Z,7.68
2022-11-01T11:44:51.880Z,7.93
2022-11-01T11:46:09.438Z,7.85
2022-11-01T11:47:20.699Z,7.22
2022-11-01T11:48:26.739Z,9.10
2022-11-01T11:49:32.602Z,22.48
2022-11-01T11:50:38.088Z,13.13
2022-11-01T11:51:42.412Z,10.43
2022-11-01T11:52:47.329Z,10.52
2022-11-01T11:54:13.711Z,15.25
2022-11-01T11:55:28.678Z,8.32
2022-11-01T11:56:32.805Z,17.33
2022-11-01T11:57:35.784Z,13.00
2022-11-01T11:58:43.512Z,12.38
2022-11-01T11:59:52.043Z,9.70
2022-11-01T12:01:01.169Z,11.68
2022-11-01T12:02:06.893Z,8.18
2022-11-01T12:03:17.454Z,7.25
2022-11-01T12:04:22.059Z,8.05
2022-11-01T12:05:29.051Z,8.75
2022-11-01T12:06:33.685Z,10.60
2022-11-01T12:07:38.046Z,9.20
2022-11-01T12:08:47.083Z,7.57
2022-11-01T12:09:49.933Z,10.13
2022-11-01T12:10:59.807Z,9.23
2022-11-01T12:12:07.654Z,13.02
2022-11-01T12:13:27.221Z,12.57
2022-11-01T12:14:31.299Z,6.93
2022-11-01T12:15:40.077Z,8.65
2022-11-01T12:16:45.226Z,10.60
2022-11-01T12:17:49.112Z,10.98
2022-11-01T12:18:57.022Z,9.68
2022-11-01T12:20:01.625Z,20.42
2022-11-01T12:21:07.059Z,13.13
2022-11-01T12:22:10.291Z,10.55
2022-11-01T12:23:17.991Z,10.73
2022-11-01T12:24:23.180Z,15.48
2022-11-01T12:25:26.978Z,12.45
2022-11-01T12:26:32.162Z,17.35
2022-11-01T12:27:37.139Z,25.98
2022-11-01T12:28:43.171Z,18.85
2022-11-01T12:29:50.969Z,11.90
2022-11-01T12:30:59.779Z,11.98
2022-11-01T12:32:06.746Z,10.98
2022-11-01T12:34:28.582Z,10.60
2022-11-01T12:35:38.005Z,12.82
2022-11-01T12:36:46.426Z,13.98
2022-11-01T12:37:57.448Z,14.05
2022-11-01T12:39:05.521Z,8.95
2022-11-01T12:40:17.352Z,9.32
2022-11-01T12:41:28.268Z,13.98
2022-11-01T12:42:37.334Z,9.82
2022-11-01T12:43:49.590Z,8.45
2022-11-01T12:44:56.089Z,13.32
2022-11-01T12:46:02.669Z,9.02
2022-11-01T12:47:12.432Z,7.78
2022-11-01T12:48:20.744Z,14.15
2022-11-01T12:49:31.621Z,12.88
2022-11-01T12:50:42.610Z,9.85
2022-11-01T12:51:50.890Z,11.98
2022-11-01T12:52:58.433Z,10.02
2022-11-01T12:54:06.261Z,8.50
2022-11-01T12:55:20.730Z,8.90
2022-11-01T12:56:24.973Z,8.27
2022-11-01T12:57:28.479Z,10.32
2022-11-01T12:58:36.094Z,12.13
2022-11-01T12:59:39.513Z,11.55
2022-11-01T13:00:57.863Z,10.43
2022-11-01T13:02:10.223Z,7.90
2022-11-01T13:03:24.121Z,9.05
2022-11-01T13:04:31.914Z,9.48
2022-11-01T13:05:40.681Z,8.10
2022-11-01T13:06:59.482Z,7.57
2022-11-01T13:08:10.259Z,9.50
2022-11-01T13:09:18.030Z,9.48
2022-11-01T13:10:28.090Z,11.88
2022-11-01T13:11:39.650Z,9.32
2022-11-01T13:12:51.030Z,10.38
2022-11-01T13:14:02.060Z,9.95
2022-11-01T13:15:13.208Z,10.90
2022-11-01T13:16:20.142Z,7.82
2022-11-01T13:17:28.017Z,10.35
2022-11-01T13:18:41.064Z,11.10
2022-11-01T13:19:50.403Z,7.80
2022-11-01T13:20:58.498Z,7.97
2022-11-01T13:22:07.551Z,11.23
2022-11-01T13:23:16.807Z,7.25
2022-11-01T13:24:26.702Z,9.43
2022-11-01T13:25:37.176Z,8.88
2022-11-01T13:26:45.110Z,7.95
2022-11-01T13:27:51.190Z,11.20
2022-11-01T13:29:08.012Z,8.88
2022-11-01T13:30:13.928Z,9.52
2022-11-01T13:31:28.021Z,8.38
2022-11-01T13:32:36.710Z,7.00
2022-11-01T13:33:44.701Z,9.40
2022-11-01T13:34:58.459Z,13.77
2022-11-01T13:36:05.481Z,20.13
2022-11-01T13:37:18.570Z,12.43
2022-11-01T13:38:27.972Z,15.85
2022-11-01T13:39:39.272Z,17.40
2022-11-01T13:40:45.512Z,36.15
2022-11-01T13:41:53.651Z,58.08
2022-11-01T13:43:02.523Z,28.30
2022-11-01T13:44:10.938Z,18.42
2022-11-01T13:45:44.978Z,34.35
2022-11-01T13:47:08.363Z,14.52
2022-11-01T13:48:17.870Z,22.98
2022-11-01T13:49:45.101Z,12.85
2022-11-01T13:51:10.452Z,24.67
2022-11-01T13:52:16.808Z,21.05
2022-11-01T13:53:23.741Z,21.98
2022-11-01T13:54:29.020Z,17.88
2022-11-01T13:55:38.240Z,9.93
2022-11-01T13:56:44.990Z,16.27
2022-11-01T13:57:48.984Z,32.53
2022-11-01T13:58:53.212Z,17.42
2022-11-01T13:59:57.707Z,14.30
2022-11-01T14:01:29.130Z,21.17
2022-11-01T14:02:57.750Z,17.08
2022-11-01T14:04:48.809Z,15.63
2022-11-01T14:06:31.325Z,9.55
2022-11-01T14:07:36.932Z,14.80
2022-11-01T14:08:41.328Z,19.10
2022-11-01T14:09:50.828Z,15.88
2022-11-01T14:10:53.801Z,13.30
2022-11-01T14:11:58.858Z,17.98
2022-11-01T14:13:13.985Z,11.10
2022-11-01T14:14:52.462Z,12.95
2022-11-01T14:16:04.830Z,17.77
2022-11-01T14:18:01.154Z,12.25
2022-11-01T14:19:20.150Z,18.90
2022-11-01T14:20:45.520Z,15.52
2022-11-01T14:21:51.252Z,16.17
2022-11-01T14:22:57.198Z,11.32
2022-11-01T14:24:09.539Z,12.73
2022-11-01T14:25:35.512Z,8.25
2022-11-01T14:27:11.175Z,10.30
2022-11-01T14:28:22.102Z,10.32
2022-11-01T14:29:25.940Z,10.90
2022-11-01T14:30:35.170Z,8.25
2022-11-01T14:31:38.459Z,12.27
2022-11-01T14:32:44.018Z,12.55
2022-11-01T14:33:48.772Z,11.52
2022-11-01T14:35:01.712Z,11.65
2022-11-01T14:36:05.776Z,11.60
2022-11-01T14:37:19.453Z,12.80
2022-11-01T14:38:29.325Z,15.57
2022-11-01T14:39:40.374Z,10.27
2022-11-01T14:40:48.259Z,10.18